Time;durP1;ratioP1;P1;durP2;ratioP2;P2;SDS_P1;SDS_P2;PMS_P1;PMS_P2;Temp;Humidity;BMP_temperature;BMP_pressure;BME280_temperature;BME280_humidity;BME280_pressure;Samples;Min_cycle;Max_cycle;Signal;HPM_P1;HPM_P2
2021/06/29 00:00:00;;;;;;;11.25;4.30;;;;;;;17.26;65.83;100175.47;126103;1093;26305;-62
2021/06/29 00:02:33;;;;;;;12.83;4.27;;;;;;;17.20;65.94;100166.29;126145;1093;22778;-64
2021/06/29 00:05:06;;;;;;;13.70;4.70;;;;;;;17.18;66.04;100168.10;125800;1093;22777;-64
2021/06/29 00:07:37;;;;;;;11.50;4.80;;;;;;;17.12;66.21;100170.98;126113;1092;26014;-62
2021/06/29 00:10:11;;;;;;;11.00;4.00;;;;;;;17.07;66.43;100168.22;125889;1093;27345;-62
2021/06/29 00:12:42;;;;;;;12.15;4.55;;;;;;;17.01;66.33;100165.42;126006;1092;25864;-64
2021/06/29 00:15:15;;;;;;;10.80;4.47;;;;;;;16.96;66.38;100171.89;125844;1092;26229;-63
2021/06/29 00:17:47;;;;;;;8.55;3.95;;;;;;;16.91;66.59;100167.82;126040;1093;22809;-62
2021/06/29 00:20:19;;;;;;;12.60;4.60;;;;;;;16.88;66.54;100168.86;125949;1093;22828;-65
2021/06/29 00:22:50;;;;;;;10.80;3.90;;;;;;;16.87;66.55;100163.75;126084;1093;22790;-62
2021/06/29 00:25:22;;;;;;;9.10;3.70;;;;;;;16.85;67.23;100160.69;125844;1093;25855;-64
2021/06/29 00:27:54;;;;;;;12.00;3.90;;;;;;;16.82;66.91;100156.86;125905;1093;22835;-63
2021/06/29 00:30:26;;;;;;;16.35;4.80;;;;;;;16.80;66.92;100158.69;125891;1093;24419;-62
2021/06/29 00:32:57;;;;;;;9.70;4.20;;;;;;;16.76;67.50;100144.86;125883;1093;25217;-63
2021/06/29 00:35:28;;;;;;;8.75;3.45;;;;;;;16.72;67.27;100138.74;125859;1093;22828;-62
2021/06/29 00:38:00;;;;;;;12.85;4.05;;;;;;;16.69;67.40;100145.44;125840;1093;22775;-62
2021/06/29 00:40:33;;;;;;;9.35;3.80;;;;;;;16.65;67.16;100149.83;125826;1093;22884;-61
2021/06/29 00:43:05;;;;;;;11.80;4.70;;;;;;;16.60;67.55;100139.34;126088;1093;25829;-63
2021/06/29 00:45:36;;;;;;;12.30;4.50;;;;;;;16.56;67.60;100141.68;125986;1093;22797;-62
2021/06/29 00:48:10;;;;;;;11.35;3.50;;;;;;;16.49;67.48;100140.18;125901;1093;22774;-63
2021/06/29 00:50:45;;;;;;;12.25;3.80;;;;;;;16.45;67.62;100136.11;125858;1093;26229;-62
2021/06/29 00:53:17;;;;;;;11.67;4.07;;;;;;;16.40;67.80;100134.08;125976;1093;22751;-63
2021/06/29 00:55:49;;;;;;;9.97;4.60;;;;;;;16.36;67.59;100137.18;125888;1093;22751;-63
2021/06/29 00:58:21;;;;;;;9.90;3.60;;;;;;;16.31;68.09;100126.70;125959;1093;22748;-64
2021/06/29 01:00:53;;;;;;;10.63;4.27;;;;;;;16.30;67.79;100128.00;125897;1092;22780;-62
2021/06/29 01:03:26;;;;;;;9.85;3.65;;;;;;;16.30;68.13;100124.41;125903;1093;22759;-61
2021/06/29 01:05:58;;;;;;;10.45;4.15;;;;;;;16.29;68.06;100118.01;125814;1093;22756;-62
2021/06/29 01:08:31;;;;;;;12.05;4.45;;;;;;;16.31;68.19;100121.06;125836;1093;22859;-63
2021/06/29 01:11:03;;;;;;;11.10;4.75;;;;;;;16.33;68.27;100117.72;125835;1093;27294;-65
2021/06/29 01:13:37;;;;;;;11.30;4.60;;;;;;;16.30;68.14;100110.33;125969;1093;22727;-63
2021/06/29 01:16:10;;;;;;;11.70;4.50;;;;;;;16.25;68.44;100108.30;125888;1093;22786;-64
2021/06/29 01:18:45;;;;;;;12.17;4.80;;;;;;;16.23;68.48;100108.05;125898;1093;22860;-61
2021/06/29 01:21:18;;;;;;;10.40;4.97;;;;;;;16.20;68.53;100107.07;126042;1093;24413;-63
2021/06/29 01:23:53;;;;;;;11.55;4.60;;;;;;;16.17;68.71;100106.05;125901;1093;22813;-62
2021/06/29 01:26:26;;;;;;;12.00;4.80;;;;;;;16.14;68.93;100114.76;126039;1093;22809;-63
2021/06/29 01:29:01;;;;;;;12.45;5.15;;;;;;;16.10;68.81;100103.77;126076;1093;24280;-62
2021/06/29 01:31:34;;;;;;;11.20;5.15;;;;;;;16.07;68.88;100104.06;125929;1093;24165;-62
2021/06/29 01:34:07;;;;;;;11.40;5.15;;;;;;;16.02;69.05;100102.03;125944;1093;22778;-64
2021/06/29 01:36:39;;;;;;;11.65;4.30;;;;;;;15.96;68.95;100095.66;125914;1093;22845;-63
2021/06/29 01:39:12;;;;;;;9.45;3.90;;;;;;;15.92;69.01;100098.77;125895;1093;22781;-61
2021/06/29 01:41:44;;;;;;;13.40;4.25;;;;;;;15.86;68.96;100095.20;125904;1093;22775;-65
2021/06/29 01:44:22;;;;;;;11.40;4.53;;;;;;;15.85;69.05;100096.48;125867;1093;25855;-63
2021/06/29 01:46:56;;;;;;;10.90;4.23;;;;;;;15.84;69.39;100092.15;125855;1093;22748;-63
2021/06/29 01:49:28;;;;;;;12.35;5.10;;;;;;;15.83;69.22;100089.86;126024;1093;22838;-62
2021/06/29 01:52:00;;;;;;;12.60;4.60;;;;;;;15.79;69.46;100095.74;126026;1093;27657;-64
2021/06/29 01:54:31;;;;;;;12.80;5.10;;;;;;;15.76;69.32;100096.80;125836;1093;22751;-63
2021/06/29 01:57:03;;;;;;;11.90;5.25;;;;;;;15.72;69.47;100092.71;125944;1093;25830;-62
2021/06/29 01:59:35;;;;;;;9.55;4.80;;;;;;;15.70;69.40;100084.02;125894;1093;22832;-63
2021/06/29 02:02:08;;;;;;;13.35;5.65;;;;;;;15.66;69.71;100094.79;125846;1093;22727;-62
2021/06/29 02:04:40;;;;;;;10.80;4.55;;;;;;;15.62;69.83;100094.30;125910;1092;22756;-62
2021/06/29 02:07:12;;;;;;;10.75;5.15;;;;;;;15.59;69.46;100093.27;125847;1092;22768;-63
2021/06/29 02:09:44;;;;;;;12.00;5.00;;;;;;;15.60;70.09;100091.23;126186;1093;22732;-67
2021/06/29 02:12:16;;;;;;;13.40;5.35;;;;;;;15.60;69.80;100091.23;125924;1093;22759;-63
2021/06/29 02:14:48;;;;;;;12.90;5.80;;;;;;;15.60;70.12;100082.80;125886;1093;25855;-61
2021/06/29 02:17:20;;;;;;;13.87;5.67;;;;;;;15.58;70.31;100088.91;125865;1093;27658;-61
2021/06/29 02:19:51;;;;;;;13.35;5.90;;;;;;;15.57;70.26;100100.70;125855;1093;26211;-63
2021/06/29 02:22:22;;;;;;;12.30;6.00;;;;;;;15.56;70.26;100093.55;126042;1093;22748;-64
2021/06/29 02:24:54;;;;;;;15.50;6.10;;;;;;;15.53;70.55;100094.57;125873;1093;24413;-61
2021/06/29 02:27:29;;;;;;;12.95;5.95;;;;;;;15.52;70.42;100093.05;125850;1093;22778;-62
2021/06/29 02:30:01;;;;;;;12.70;6.40;;;;;;;15.50;70.67;100101.25;126085;1092;22821;-63
2021/06/29 02:32:33;;;;;;;12.50;5.20;;;;;;;15.48;70.44;100098.19;125907;1093;22817;-62
2021/06/29 02:35:05;;;;;;;16.63;6.10;;;;;;;15.44;70.67;100103.28;125884;1093;24683;-62
2021/06/29 02:37:36;;;;;;;11.70;6.00;;;;;;;15.39;70.82;100108.38;125854;1093;22778;-62
2021/06/29 02:40:11;;;;;;;12.40;5.20;;;;;;;15.34;70.72;100097.92;125814;1093;26271;-63
2021/06/29 02:42:42;;;;;;;13.45;5.30;;;;;;;15.30;71.01;100091.03;125999;1093;22791;-61
2021/06/29 02:45:17;;;;;;;11.75;5.20;;;;;;;15.27;70.90;100092.05;125861;1093;22780;-62
2021/06/29 02:47:50;;;;;;;15.15;5.40;;;;;;;15.23;70.77;100089.51;125986;1092;22751;-61
2021/06/29 02:50:22;;;;;;;13.55;5.65;;;;;;;15.22;70.80;100090.03;125918;1093;22805;-62
2021/06/29 02:52:54;;;;;;;16.00;6.35;;;;;;;15.23;70.84;100089.51;125958;1093;22809;-63
2021/06/29 02:55:26;;;;;;;12.40;5.80;;;;;;;15.24;70.87;100088.24;125826;1093;22760;-62
2021/06/29 02:57:57;;;;;;;16.07;7.23;;;;;;;15.26;71.42;100080.05;126037;1093;22754;-61
2021/06/29 03:00:29;;;;;;;14.03;6.47;;;;;;;15.27;71.13;100077.98;126016;1093;22759;-63
2021/06/29 03:03:00;;;;;;;15.35;6.55;;;;;;;15.27;71.24;100075.17;126039;1093;22767;-62
2021/06/29 03:05:32;;;;;;;15.75;6.70;;;;;;;15.26;71.70;100077.23;125832;1093;22900;-62
2021/06/29 03:08:04;;;;;;;16.13;7.60;;;;;;;15.27;71.61;100075.17;126039;1093;22778;-62
2021/06/29 03:10:36;;;;;;;18.13;7.80;;;;;;;15.26;71.98;100091.30;125913;1093;22801;-62
2021/06/29 03:13:08;;;;;;;14.53;7.30;;;;;;;15.26;72.18;100088.49;125839;1093;22757;-64
2021/06/29 03:15:40;;;;;;;17.05;7.15;;;;;;;15.25;71.53;100086.95;126092;1093;22774;-64
2021/06/29 03:18:12;;;;;;;22.35;8.35;;;;;;;15.24;71.70;100091.05;125850;1093;24442;-62
2021/06/29 03:20:43;;;;;;;21.00;7.15;;;;;;;15.22;72.18;100096.42;125975;1093;26936;-61
2021/06/29 03:23:15;;;;;;;21.53;8.23;;;;;;;15.20;71.92;100090.55;125971;1093;22747;-63
2021/06/29 03:25:46;;;;;;;19.65;7.70;;;;;;;15.19;72.16;100093.86;125849;1092;22803;-63
2021/06/29 03:28:18;;;;;;;16.10;6.65;;;;;;;15.16;71.96;100092.09;125848;1092;22778;-63
2021/06/29 03:30:49;;;;;;;18.30;7.23;;;;;;;15.15;72.64;100094.13;125894;1093;22848;-62
2021/06/29 03:33:21;;;;;;;16.20;6.30;;;;;;;15.16;72.46;100094.91;125937;1093;22713;-62
2021/06/29 03:35:52;;;;;;;18.80;7.23;;;;;;;15.15;72.80;100091.31;125891;1093;22751;-62
2021/06/29 03:38:24;;;;;;;16.85;6.75;;;;;;;15.17;72.47;100094.38;125879;1093;26433;-63
2021/06/29 03:40:57;;;;;;;18.80;7.85;;;;;;;15.17;72.87;100085.95;125872;1093;22727;-62
2021/06/29 03:43:33;;;;;;;21.87;9.10;;;;;;;15.22;72.52;100075.97;125892;1093;22781;-62
2021/06/29 03:46:05;;;;;;;17.20;7.45;;;;;;;15.30;72.89;100079.78;125866;1093;25561;-62
2021/06/29 03:48:37;;;;;;;17.67;8.97;;;;;;;15.35;73.26;100076.20;125989;1093;22852;-62
2021/06/29 03:51:11;;;;;;;20.00;9.40;;;;;;;15.43;73.24;100073.64;126016;1093;22802;-62
2021/06/29 03:53:42;;;;;;;17.30;9.70;;;;;;;15.52;73.09;100076.17;125851;1093;26236;-62
2021/06/29 03:59:02;;;;;;;19.10;9.45;;;;;;;15.65;73.29;100082.76;125843;1093;25830;-63
2021/06/29 04:01:35;;;;;;;18.93;10.10;;;;;;;15.71;73.19;100082.73;125944;1093;26801;-64
2021/06/29 04:04:08;;;;;;;19.25;10.20;;;;;;;15.81;73.82;100087.55;125856;1093;24440;-61
2021/06/29 04:06:40;;;;;;;18.70;10.00;;;;;;;15.90;73.61;100084.44;125961;1093;22819;-63
2021/06/29 04:09:12;;;;;;;18.35;10.45;;;;;;;15.99;73.31;100091.82;125891;1093;22751;-62
2021/06/29 04:11:46;;;;;;;20.10;10.60;;;;;;;16.05;73.38;100084.88;125848;1093;22845;-65
2021/06/29 04:14:18;;;;;;;23.07;10.17;;;;;;;16.10;73.41;100086.11;126645;1093;27454;-62
2021/06/29 04:16:49;;;;;;;20.35;10.55;;;;;;;16.19;73.75;100088.63;125679;1093;22757;-63
2021/06/29 04:19:21;;;;;;;18.65;10.75;;;;;;;16.31;73.30;100101.34;125958;1093;22748;-63
2021/06/29 04:21:53;;;;;;;19.10;11.05;;;;;;;16.38;73.51;100106.44;125958;1093;22800;-63
2021/06/29 04:24:25;;;;;;;18.20;10.90;;;;;;;16.48;73.61;100107.64;125887;1093;24448;-62
2021/06/29 04:26:56;;;;;;;19.83;11.60;;;;;;;16.55;73.44;100106.34;125939;1092;22792;-63
2021/06/29 04:29:28;;;;;;;20.10;11.05;;;;;;;16.64;73.50;100103.95;125744;1093;22766;-61
2021/06/29 04:31:59;;;;;;;20.75;11.05;;;;;;;16.75;73.44;100105.92;125920;1093;25829;-63
2021/06/29 04:34:31;;;;;;;21.00;11.67;;;;;;;16.85;73.69;100107.89;125847;1093;24455;-64
2021/06/29 04:37:03;;;;;;;21.15;10.90;;;;;;;16.97;73.31;100106.50;125887;1093;22828;-66
2021/06/29 04:39:36;;;;;;;20.57;11.07;;;;;;;17.09;73.35;100107.14;125709;1092;22822;-65
2021/06/29 04:42:09;;;;;;;21.10;11.05;;;;;;;17.22;73.45;100089.59;126042;1093;27249;-64
2021/06/29 04:44:41;;;;;;;19.80;10.45;;;;;;;17.38;73.04;100091.48;125817;1093;22757;-64
2021/06/29 04:47:13;;;;;;;21.40;12.80;;;;;;;17.49;72.80;100088.52;125896;1093;22766;-63
2021/06/29 04:49:44;;;;;;;21.50;12.10;;;;;;;17.59;73.32;100098.18;125849;1092;22836;-66
2021/06/29 04:52:16;;;;;;;20.65;12.90;;;;;;;17.70;73.09;100090.36;125968;1093;22832;-66
2021/06/29 04:54:48;;;;;;;21.70;11.30;;;;;;;17.78;73.29;100096.16;125796;1093;22763;-65
2021/06/29 04:57:19;;;;;;;19.23;11.90;;;;;;;17.91;73.05;100101.91;125896;1093;22831;-66
2021/06/29 04:59:52;;;;;;;26.20;13.10;;;;;;;18.02;73.26;100092.52;125809;1093;22755;-65
2021/06/29 05:02:23;;;;;;;22.05;12.40;;;;;;;18.13;73.32;100092.35;126295;1093;22760;-65
2021/06/29 05:04:55;;;;;;;26.35;12.70;;;;;;;18.27;73.13;100097.53;125898;1093;22774;-63
2021/06/29 05:07:27;;;;;;;27.50;13.80;;;;;;;18.36;73.22;100099.98;126091;1092;22765;-62
2021/06/29 05:09:58;;;;;;;22.90;11.70;;;;;;;18.52;73.01;100095.39;125915;1092;22775;-62
2021/06/29 05:12:30;;;;;;;21.80;13.80;;;;;;;18.66;72.80;100082.08;125913;1093;22775;-63
2021/06/29 05:15:01;;;;;;;21.25;12.85;;;;;;;18.81;72.79;100093.67;125961;1093;22751;-63
2021/06/29 05:17:36;;;;;;;23.50;13.40;;;;;;;18.96;72.67;100086.19;125891;1093;24265;-63
2021/06/29 05:20:11;;;;;;;23.95;13.60;;;;;;;19.07;72.84;100091.66;129228;1093;22853;-64
2021/06/29 05:22:43;;;;;;;26.30;15.25;;;;;;;19.25;72.46;100092.86;125914;1092;22970;-62
2021/06/29 05:25:16;;;;;;;24.75;14.80;;;;;;;19.39;72.48;100097.25;125822;1093;25833;-61
2021/06/29 05:27:47;;;;;;;22.60;14.30;;;;;;;19.60;72.25;100091.70;126540;1093;25931;-62
2021/06/29 05:30:21;;;;;;;27.13;15.27;;;;;;;19.76;72.11;100079.29;125924;1093;22802;-63
2021/06/29 05:32:53;;;;;;;24.65;14.90;;;;;;;19.90;72.04;100073.05;126201;1093;22905;-62
2021/06/29 05:35:26;;;;;;;25.27;15.47;;;;;;;20.04;71.63;100074.55;125834;1093;22751;-63
2021/06/29 05:37:58;;;;;;;31.30;15.17;;;;;;;20.21;71.64;100067.77;126210;1093;22931;-63
2021/06/29 05:40:30;;;;;;;27.95;14.13;;;;;;;20.36;71.58;100065.84;125926;1092;22781;-62
2021/06/29 05:43:02;;;;;;;23.30;13.85;;;;;;;20.54;71.52;100058.47;126245;1093;22835;-63
2021/06/29 05:45:33;;;;;;;26.90;14.45;;;;;;;20.70;70.75;100062.96;125979;1092;22851;-62
2021/06/29 05:48:06;;;;;;;23.43;14.15;;;;;;;20.85;70.72;100055.36;126218;1093;25855;-62
2021/06/29 05:50:38;;;;;;;24.27;13.77;;;;;;;20.97;70.42;100055.81;126169;1093;27184;-61
2021/06/29 05:53:10;;;;;;;25.53;12.53;;;;;;;21.11;70.12;100043.08;126035;1093;22850;-63
2021/06/29 05:55:42;;;;;;;22.00;11.63;;;;;;;21.27;69.63;100041.85;126053;1093;22845;-62
2021/06/29 05:58:13;;;;;;;26.23;12.13;;;;;;;21.46;69.71;100047.27;125927;1093;24595;-62
2021/06/29 06:00:45;;;;;;;23.50;12.43;;;;;;;21.63;69.25;100047.55;126028;1093;22753;-63
2021/06/29 06:03:16;;;;;;;22.78;10.45;;;;;;;21.81;69.25;100046.49;125959;1093;22811;-63
2021/06/29 06:05:48;;;;;;;29.43;12.10;;;;;;;21.95;68.83;100035.80;126131;1093;22835;-62
2021/06/29 06:08:19;;;;;;;24.27;11.83;;;;;;;22.10;68.81;100041.53;125960;1093;22781;-63
2021/06/29 06:10:50;;;;;;;25.68;12.20;;;;;;;22.27;67.84;100033.22;125974;1093;22783;-64
2021/06/29 06:13:23;;;;;;;18.85;10.85;;;;;;;22.39;67.63;100037.22;125969;1093;22781;-64
2021/06/29 06:15:56;;;;;;;19.70;10.45;;;;;;;22.47;67.84;100046.55;125931;1093;22797;-63
2021/06/29 06:18:29;;;;;;;24.08;11.70;;;;;;;22.61;67.73;100047.15;126227;1093;22794;-63
2021/06/29 06:21:01;;;;;;;20.73;11.03;;;;;;;22.70;67.14;100055.88;126043;1093;23569;-62
2021/06/29 06:23:32;;;;;;;19.85;10.88;;;;;;;22.79;67.19;100061.02;125926;1093;27189;-65
2021/06/29 06:26:04;;;;;;;23.65;11.68;;;;;;;22.84;66.51;100054.38;125943;1093;26264;-62
2021/06/29 06:28:36;;;;;;;21.43;10.25;;;;;;;22.91;66.26;100056.45;126068;1093;25974;-63
2021/06/29 06:31:08;;;;;;;23.30;11.10;;;;;;;23.02;66.03;100050.39;126102;1092;22751;-63
2021/06/29 06:33:40;;;;;;;20.63;11.60;;;;;;;23.15;65.82;100046.58;126611;1093;22756;-64
2021/06/29 06:36:12;;;;;;;23.75;11.28;;;;;;;23.23;65.47;100045.24;126113;1092;22784;-63
2021/06/29 06:38:43;;;;;;;23.30;10.80;;;;;;;23.33;64.88;100042.59;126142;1093;23189;-63
2021/06/29 06:41:15;;;;;;;22.57;10.87;;;;;;;23.42;64.57;100046.94;125908;1092;22781;-63
2021/06/29 06:43:47;;;;;;;19.25;9.38;;;;;;;23.55;64.27;100055.24;126035;1093;22754;-64
2021/06/29 06:46:19;;;;;;;17.13;7.78;;;;;;;23.68;64.10;100063.58;125925;1093;22831;-63
2021/06/29 06:48:50;;;;;;;18.15;10.08;;;;;;;23.78;63.21;100070.19;125925;1093;23715;-62
2021/06/29 06:51:22;;;;;;;20.95;9.58;;;;;;;23.87;63.37;100061.80;125960;1093;22845;-64
2021/06/29 06:53:53;;;;;;;20.08;8.53;;;;;;;23.96;63.08;100066.88;125888;1093;22751;-63
2021/06/29 06:56:25;;;;;;;19.03;9.03;;;;;;;24.10;63.11;100070.29;125919;1093;22771;-63
2021/06/29 06:58:58;;;;;;;20.53;8.70;;;;;;;24.19;62.37;100077.47;125889;1093;23515;-63
2021/06/29 07:01:29;;;;;;;17.90;8.73;;;;;;;24.27;61.97;100084.63;125850;1093;22779;-63
2021/06/29 07:04:00;;;;;;;18.15;8.63;;;;;;;24.35;61.98;100079.67;125926;1093;23066;-63
2021/06/29 07:06:32;;;;;;;20.28;9.48;;;;;;;24.44;61.75;100073.31;125859;1093;22821;-62
2021/06/29 07:09:03;;;;;;;15.38;7.93;;;;;;;24.52;61.31;100074.03;125892;1093;22774;-63
2021/06/29 07:11:35;;;;;;;17.08;9.08;;;;;;;24.63;60.84;100069.96;125887;1093;22748;-63
2021/06/29 07:14:06;;;;;;;18.33;9.05;;;;;;;24.72;61.22;100072.19;126027;1093;22748;-65
2021/06/29 07:16:38;;;;;;;17.45;6.05;;;;;;;24.84;59.91;100074.03;125956;1093;22775;-64
2021/06/29 07:19:11;;;;;;;15.48;6.00;;;;;;;24.96;59.38;100074.30;125964;1093;22842;-63
2021/06/29 07:21:43;;;;;;;15.45;6.50;;;;;;;25.06;59.65;100066.60;126168;1093;22754;-63
2021/06/29 07:24:14;;;;;;;15.90;6.20;;;;;;;25.18;58.74;100061.18;125944;1093;26299;-64
2021/06/29 07:26:46;;;;;;;15.38;6.23;;;;;;;25.26;58.67;100059.77;125889;1093;22696;-63
2021/06/29 07:29:18;;;;;;;13.60;5.50;;;;;;;25.37;58.39;100052.78;125933;1092;22903;-64
2021/06/29 07:31:50;;;;;;;14.37;5.93;;;;;;;25.51;57.70;100051.89;125973;1093;22751;-64
2021/06/29 07:34:21;;;;;;;11.83;5.63;;;;;;;25.60;57.02;100044.75;126024;1093;22754;-63
2021/06/29 07:36:55;;;;;;;12.05;5.45;;;;;;;25.68;56.75;100042.55;125912;1093;22762;-63
2021/06/29 07:39:26;;;;;;;13.38;5.33;;;;;;;25.76;55.97;100046.11;126193;1093;22792;-63
2021/06/29 07:41:58;;;;;;;11.73;5.78;;;;;;;25.81;56.44;100041.45;126029;1092;22771;-63
2021/06/29 07:44:29;;;;;;;12.13;4.98;;;;;;;25.84;56.48;100029.61;125921;1093;22790;-64
2021/06/29 07:47:01;;;;;;;13.70;6.88;;;;;;;25.92;55.98;100046.66;125894;1093;27281;-65
2021/06/29 07:49:33;;;;;;;11.78;5.75;;;;;;;25.96;56.11;100041.27;126179;1093;22770;-63
2021/06/29 07:52:10;;;;;;;11.88;5.85;;;;;;;25.99;55.80;100037.23;125980;1093;23190;-63
2021/06/29 07:54:42;;;;;;;15.60;6.40;;;;;;;26.02;55.29;100044.63;126066;1093;22771;-64
2021/06/29 07:57:13;;;;;;;12.98;4.80;;;;;;;26.05;54.97;100040.59;125989;1093;22777;-63
2021/06/29 07:59:45;;;;;;;12.58;5.78;;;;;;;26.07;54.60;100050.09;125917;1093;22755;-63
2021/06/29 08:02:17;;;;;;;13.10;5.73;;;;;;;26.07;54.61;100046.48;126030;1092;22848;-62
2021/06/29 08:04:49;;;;;;;10.23;4.43;;;;;;;26.11;54.48;100049.69;126029;1093;22776;-62
2021/06/29 08:07:20;;;;;;;12.15;4.55;;;;;;;26.15;54.12;100044.30;126051;1093;22754;-64
2021/06/29 08:09:52;;;;;;;10.30;5.35;;;;;;;26.22;53.78;100038.45;125949;1093;24451;-63
2021/06/29 08:12:23;;;;;;;11.23;4.90;;;;;;;26.31;53.36;100042.73;125908;1093;22778;-63
2021/06/29 08:14:57;;;;;;;10.53;4.30;;;;;;;26.44;53.15;100033.77;125979;1093;27256;-63
2021/06/29 08:17:29;;;;;;;10.58;4.60;;;;;;;26.59;52.85;100035.64;125911;1093;22774;-63
2021/06/29 08:20:01;;;;;;;12.10;4.80;;;;;;;26.70;52.15;100032.20;126069;1092;22832;-63
2021/06/29 08:22:32;;;;;;;9.78;4.20;;;;;;;26.81;51.80;100038.17;125965;1093;22793;-64
2021/06/29 08:25:04;;;;;;;9.78;3.88;;;;;;;26.90;51.80;100039.56;126018;1093;22751;-63
2021/06/29 08:27:36;;;;;;;9.38;3.93;;;;;;;26.98;50.87;100040.91;126032;1093;22832;-63
2021/06/29 08:30:10;;;;;;;9.55;3.78;;;;;;;27.02;50.38;100034.76;126048;1093;22792;-64
2021/06/29 08:32:42;;;;;;;8.45;3.45;;;;;;;27.10;49.51;100032.52;125916;1093;22912;-63
2021/06/29 08:35:15;;;;;;;11.30;3.58;;;;;;;27.23;50.00;100029.20;125961;1092;22810;-64
2021/06/29 08:37:47;;;;;;;9.00;3.63;;;;;;;27.35;49.41;100020.81;125941;1093;22752;-63
2021/06/29 08:40:18;;;;;;;10.13;3.60;;;;;;;27.45;49.21;100028.06;125940;1092;22751;-63
2021/06/29 08:42:50;;;;;;;10.38;4.15;;;;;;;27.57;48.63;100031.84;125996;1093;24451;-63
2021/06/29 08:45:22;;;;;;;12.08;4.03;;;;;;;27.69;48.25;100027.00;125923;1093;22754;-63
2021/06/29 08:47:53;;;;;;;7.80;2.85;;;;;;;27.73;48.31;100021.56;125972;1093;24527;-63
2021/06/29 08:50:30;;;;;;;10.55;3.15;;;;;;;27.78;47.86;100023.39;125967;1093;23460;-63
2021/06/29 08:53:04;;;;;;;8.43;3.20;;;;;;;27.81;47.32;100022.16;125923;1093;23331;-64
2021/06/29 08:55:39;;;;;;;8.00;2.43;;;;;;;27.82;46.55;100026.55;126071;1093;22925;-63
2021/06/29 08:58:11;;;;;;;7.57;2.30;;;;;;;27.85;46.13;100028.19;125989;1093;22955;-63
2021/06/29 09:00:42;;;;;;;8.28;2.55;;;;;;;27.87;45.96;100021.88;125944;1093;22787;-66
2021/06/29 09:03:14;;;;;;;9.40;3.08;;;;;;;27.88;45.55;100012.65;125890;1093;22781;-63
2021/06/29 09:05:48;;;;;;;7.43;2.60;;;;;;;27.91;45.28;100016.42;125912;1093;22778;-65
2021/06/29 09:08:21;;;;;;;8.53;2.50;;;;;;;27.95;45.45;100002.38;126099;1093;24295;-66
2021/06/29 09:11:22;;;;;;;10.33;3.03;;;;;;;27.97;44.93;99996.81;125995;1092;22897;-63
2021/06/29 09:14:08;;;;;;;6.15;2.38;;;;;;;27.99;44.63;100000.59;125625;1096;23546;-63
2021/06/29 09:16:40;;;;;;;8.63;2.98;;;;;;;28.04;44.99;99998.02;125879;1097;22845;-64
2021/06/29 09:19:12;;;;;;;7.63;2.80;;;;;;;28.04;44.92;99995.88;125669;1097;26686;-65
2021/06/29 09:21:44;;;;;;;9.38;3.03;;;;;;;28.05;45.19;100002.38;125685;1096;22845;-63
2021/06/29 09:24:16;;;;;;;8.10;2.57;;;;;;;28.05;44.40;100002.38;125867;1096;25291;-63
2021/06/29 09:26:48;;;;;;;7.63;3.00;;;;;;;28.05;45.34;99990.89;125838;1096;22888;-65
2021/06/29 09:29:37;;;;;;;8.30;3.23;;;;;;;28.05;44.91;99985.16;125682;1096;22791;-63
2021/06/29 09:32:19;;;;;;;;;;;;;;;28.06;45.20;99986.68;125720;1096;24602;-63
2021/06/29 09:38:00;;;;;;;8.48;2.63;;;;;;;28.06;44.79;99978.80;125965;1093;23116;-64
2021/06/29 09:40:33;;;;;;;10.25;2.55;;;;;;;28.08;44.96;99973.20;125910;1093;26697;-63
2021/06/29 09:43:17;;;;;;;8.97;3.03;;;;;;;28.10;44.62;99972.62;126027;1093;24506;-64
2021/06/29 09:45:51;;;;;;;10.80;3.33;;;;;;;28.12;44.94;99964.16;125883;1092;27192;-64
2021/06/29 09:48:32;;;;;;;10.23;3.40;;;;;;;28.10;44.16;99959.00;125882;1093;22794;-64
2021/06/29 09:51:07;;;;;;;8.20;3.13;;;;;;;28.09;44.29;99954.64;125877;1092;28824;-63
2021/06/29 09:53:41;;;;;;;7.03;2.85;;;;;;;28.13;43.92;99954.92;126026;1093;23631;-65
2021/06/29 09:56:17;;;;;;;9.00;2.98;;;;;;;28.14;44.60;99941.34;125954;1093;22787;-64
2021/06/29 09:58:51;;;;;;;10.40;2.85;;;;;;;28.12;44.08;99921.84;125923;1092;24502;-64
2021/06/29 10:01:26;;;;;;;7.58;2.85;;;;;;;28.12;44.61;99921.10;126008;1093;22770;-65
2021/06/29 10:03:59;;;;;;;8.73;3.13;;;;;;;28.16;44.39;99907.03;125903;1092;22851;-63
2021/06/29 10:06:33;;;;;;;8.00;2.90;;;;;;;28.17;44.84;99906.42;126070;1093;22861;-64
2021/06/29 10:09:08;;;;;;;7.63;2.75;;;;;;;28.23;44.49;99906.08;125925;1093;22775;-63
2021/06/29 10:11:41;;;;;;;7.08;2.20;;;;;;;28.28;42.61;99902.14;125971;1093;22971;-64
2021/06/29 10:14:15;;;;;;;6.00;1.93;;;;;;;28.31;42.57;99901.66;125951;1093;26338;-64
2021/06/29 10:16:49;;;;;;;7.20;2.03;;;;;;;28.37;42.72;99898.48;125891;1093;23490;-63
2021/06/29 10:19:32;;;;;;;9.28;1.80;;;;;;;28.42;42.00;99906.00;125847;1093;24473;-64
2021/06/29 10:22:06;;;;;;;5.83;1.97;;;;;;;28.48;41.98;99909.28;125893;1093;22777;-64
2021/06/29 10:24:42;;;;;;;5.45;1.70;;;;;;;28.54;41.47;99913.33;125979;1092;22764;-64
2021/06/29 10:27:16;;;;;;;11.00;1.90;;;;;;;28.57;41.42;99917.13;125858;1093;22937;-64
2021/06/29 10:29:48;;;;;;;8.20;1.88;;;;;;;28.60;41.39;99918.77;126001;1093;22789;-65
2021/06/29 10:32:20;;;;;;;7.40;1.85;;;;;;;28.62;40.64;99921.77;125867;1093;22775;-63
2021/06/29 10:34:52;;;;;;;8.00;2.23;;;;;;;28.63;40.85;99920.42;125820;1093;22767;-63
2021/06/29 10:37:25;;;;;;;7.10;2.23;;;;;;;28.66;41.10;99928.55;125909;1093;22816;-65
2021/06/29 10:39:58;;;;;;;9.38;1.95;;;;;;;28.64;40.88;99919.05;125943;1093;22848;-63
2021/06/29 10:42:30;;;;;;;6.68;1.90;;;;;;;28.64;40.20;99916.17;126160;1093;22850;-65
2021/06/29 10:45:15;;;;;;;5.23;1.63;;;;;;;28.64;40.54;99905.44;125856;1093;22771;-64
2021/06/29 10:47:46;;;;;;;6.08;1.73;;;;;;;28.66;40.43;99919.18;125890;1093;22804;-63
2021/06/29 10:50:18;;;;;;;10.03;1.80;;;;;;;28.65;40.37;99906.20;125808;1092;22763;-64
2021/06/29 10:52:49;;;;;;;8.60;1.43;;;;;;;28.65;39.97;99909.07;125837;1093;22797;-63
2021/06/29 10:55:28;;;;;;;4.73;1.40;;;;;;;28.67;39.57;99909.20;125784;1093;22772;-64
2021/06/29 10:58:02;;;;;;;5.90;1.60;;;;;;;28.68;39.30;99913.57;125876;1093;26974;-65
2021/06/29 11:00:35;;;;;;;4.30;1.50;;;;;;;28.69;39.40;99903.60;125909;1093;22794;-63
2021/06/29 11:03:13;;;;;;;6.05;1.30;;;;;;;28.68;38.65;99908.59;126060;1093;22783;-64
2021/06/29 11:05:47;;;;;;;5.08;1.40;;;;;;;28.68;38.97;99902.08;125960;1093;25900;-65
2021/06/29 11:08:23;;;;;;;4.75;1.60;;;;;;;28.68;39.41;99905.72;125821;1093;26245;-65
2021/06/29 11:10:57;;;;;;;12.35;2.00;;;;;;;28.71;38.95;99898.75;125815;1093;23224;-63
2021/06/29 11:16:56;;;;;;;6.03;1.80;;;;;;;28.72;38.58;99896.64;125993;1093;22931;-64
2021/06/29 11:20:13;;;;;;;5.33;1.48;;;;;;;28.75;38.44;99892.52;126004;1096;22776;-64
2021/06/29 11:22:53;;;;;;;9.20;1.90;;;;;;;28.85;38.91;99898.95;125552;1096;23510;-64
2021/06/29 11:25:50;;;;;;;11.43;1.70;;;;;;;29.01;38.68;99873.44;125685;1096;22755;-65
2021/06/29 11:28:26;;;;;;;5.17;1.30;;;;;;;29.17;38.19;99866.66;125246;1098;26593;-64
2021/06/29 11:31:08;;;;;;;6.80;1.75;;;;;;;29.33;37.99;99870.59;125243;1098;22820;-66
2021/06/29 11:33:50;;;;;;;4.28;1.50;;;;;;;29.49;37.64;99868.00;125361;1100;25989;-65
2021/06/29 11:36:55;;;;;;;13.65;2.38;;;;;;;29.63;37.34;99862.42;125296;1100;22780;-64
2021/06/29 11:39:38;;;;;;;5.60;1.50;;;;;;;29.71;37.20;99863.70;125554;1099;22802;-64
2021/06/29 11:42:23;;;;;;;5.75;1.48;;;;;;;29.75;37.04;99869.73;125227;1100;26908;-65
2021/06/29 11:45:03;;;;;;;5.65;1.50;;;;;;;29.78;36.16;99854.09;125227;1100;27246;-64
2021/06/29 11:47:43;;;;;;;5.20;1.63;;;;;;;29.76;36.56;99858.95;125261;1100;22880;-63